createdAt,value
2022-08-25T00:00:13.242Z,69.74
2022-08-25T00:05:07.085Z,70.38
2022-08-25T00:07:36.359Z,70.38
2022-08-25T00:10:04.200Z,70.57
2022-08-25T00:14:56.984Z,71.38
2022-08-25T00:17:23.414Z,71.12
2022-08-25T00:19:50.005Z,71.45
2022-08-25T00:22:16.515Z,71.18
2022-08-25T00:24:43.034Z,71.29
2022-08-25T00:27:11.028Z,70.77
2022-08-25T00:29:38.231Z,70.70
2022-08-25T00:32:05.649Z,70.75
2022-08-25T00:34:35.345Z,70.51
2022-08-25T00:37:03.743Z,70.46
2022-08-25T00:39:30.497Z,70.17
2022-08-25T00:41:58.104Z,70.09
2022-08-25T00:46:56.297Z,69.88
2022-08-25T00:49:49.506Z,70.23
2022-08-25T00:52:29.488Z,70.27
2022-08-25T00:55:07.737Z,70.25
2022-08-25T01:02:33.450Z,70.26
2022-08-25T01:04:59.959Z,70.23
2022-08-25T01:07:26.383Z,70.06
2022-08-25T01:09:53.302Z,70.82
2022-08-25T01:12:20.796Z,70.54
2022-08-25T01:14:48.855Z,70.62
2022-08-25T01:17:15.906Z,71.04
2022-08-25T01:19:42.495Z,70.98
2022-08-25T01:22:10.546Z,71.29
2022-08-25T01:25:01.796Z,71.29
2022-08-25T01:27:28.230Z,71.69
2022-08-25T01:29:55.196Z,71.35
2022-08-25T01:32:21.610Z,71.73
2022-08-25T01:34:48.316Z,71.83
2022-08-25T01:37:19.140Z,71.54
2022-08-25T01:42:12.124Z,72.11
2022-08-25T01:44:41.759Z,72.46
2022-08-25T01:47:08.727Z,72.72
2022-08-25T01:49:36.200Z,73.38
2022-08-25T01:52:12.651Z,73.52
2022-08-25T01:54:39.189Z,73.65
2022-08-25T01:57:05.631Z,73.64
2022-08-25T01:59:32.393Z,74.20
2022-08-25T02:02:00.180Z,74.31
2022-08-25T02:04:31.897Z,74.37
2022-08-25T02:07:00.003Z,74.38
2022-08-25T02:09:26.408Z,74.37
2022-08-25T02:11:52.940Z,74.26
2022-08-25T02:14:19.966Z,74.03
2022-08-25T02:16:49.760Z,73.91
2022-08-25T02:19:16.330Z,73.95
2022-08-25T02:21:43.376Z,73.71
2022-08-25T02:24:10.567Z,73.84
2022-08-25T02:26:37.478Z,74.51
2022-08-25T02:29:06.612Z,73.48
2022-08-25T02:31:33.366Z,73.54
2022-08-25T02:33:59.946Z,74.36
2022-08-25T02:36:26.785Z,74.92
2022-08-25T02:38:53.230Z,75.30
2022-08-25T02:41:23.675Z,75.65
2022-08-25T02:43:57.821Z,75.75
2022-08-25T02:46:24.948Z,76.15
2022-08-25T02:48:53.055Z,76.86
2022-08-25T02:51:21.934Z,77.11
2022-08-25T02:56:16.365Z,77.09
2022-08-25T02:58:43.068Z,77.30
2022-08-25T03:03:40.360Z,78.48
2022-08-25T03:06:09.551Z,78.51
2022-08-25T03:08:37.652Z,78.90
2022-08-25T03:11:05.688Z,79.20
2022-08-25T03:13:32.796Z,79.55
2022-08-25T03:16:00.552Z,79.62
2022-08-25T03:18:27.578Z,79.46
2022-08-25T03:20:55.028Z,79.86
2022-08-25T03:23:21.602Z,80.09
2022-08-25T03:26:06.303Z,79.70
2022-08-25T03:31:01.095Z,80.14
2022-08-25T03:33:31.586Z,80.55
2022-08-25T03:35:59.171Z,80.41
2022-08-25T03:38:26.825Z,80.39
2022-08-25T03:40:53.569Z,80.36
2022-08-25T03:43:20.563Z,80.16
2022-08-25T03:45:47.772Z,80.07
2022-08-25T03:48:16.060Z,80.05
2022-08-25T03:50:50.719Z,79.82
2022-08-25T03:53:20.170Z,79.80
2022-08-25T03:55:47.208Z,80.09
2022-08-25T03:58:14.048Z,80.82
2022-08-25T04:00:40.793Z,81.82
2022-08-25T04:03:07.640Z,81.89
2022-08-25T04:05:34.151Z,81.89
2022-08-25T04:08:01.794Z,82.36
2022-08-25T04:10:29.585Z,82.48
2022-08-25T04:12:57.133Z,82.95
2022-08-25T04:15:24.839Z,82.86
2022-08-25T04:17:55.166Z,82.88
2022-08-25T04:20:22.029Z,83.17
2022-08-25T04:22:48.467Z,83.65
2022-08-25T04:25:14.952Z,83.78
2022-08-25T04:27:41.784Z,83.81
2022-08-25T04:30:08.834Z,83.61
2022-08-25T04:35:04.295Z,83.96
2022-08-25T04:37:30.761Z,84.16
2022-08-25T04:39:57.242Z,84.68
2022-08-25T04:42:23.764Z,84.25
2022-08-25T04:44:50.155Z,83.79
2022-08-25T04:47:16.596Z,83.93
2022-08-25T04:49:43.359Z,83.60
2022-08-25T04:52:13.045Z,84.58
2022-08-25T04:54:41.143Z,84.01
2022-08-25T04:57:07.546Z,84.04
2022-08-25T04:59:34.111Z,83.91
2022-08-25T05:02:05.259Z,83.92
2022-08-25T05:06:59.250Z,84.06
2022-08-25T05:09:26.491Z,84.54
2022-08-25T05:11:53.791Z,85.08
2022-08-25T05:14:25.633Z,84.43
2022-08-25T05:16:54.090Z,84.22
2022-08-25T05:19:20.631Z,84.08
2022-08-25T05:21:47.106Z,84.25
2022-08-25T05:24:13.564Z,84.58
2022-08-25T05:26:40.024Z,84.24
2022-08-25T05:31:38.461Z,83.36
2022-08-25T05:34:08.822Z,83.26
2022-08-25T05:36:35.616Z,82.92
2022-08-25T05:39:03.676Z,82.79
2022-08-25T05:41:31.363Z,82.55
2022-08-25T05:43:58.056Z,82.19
2022-08-25T05:46:25.258Z,82.05
2022-08-25T05:48:52.489Z,81.91
2022-08-25T05:51:19.860Z,81.55
2022-08-25T05:53:48.269Z,81.25
2022-08-25T05:58:42.824Z,80.55
2022-08-25T06:03:54.842Z,80.78
2022-08-25T06:06:23.273Z,80.22
2022-08-25T06:08:50.048Z,80.04
2022-08-25T06:11:16.576Z,80.02
2022-08-25T06:13:43.241Z,79.92
2022-08-25T06:18:36.248Z,78.30
2022-08-25T06:21:14.077Z,78.28
2022-08-25T06:26:13.136Z,76.90
2022-08-25T06:28:47.184Z,76.30
2022-08-25T06:31:13.773Z,76.85
2022-08-25T06:36:07.564Z,76.21
2022-08-25T06:38:34.067Z,76.31
2022-08-25T06:43:34.529Z,74.53
2022-08-25T06:46:11.506Z,74.33
2022-08-25T06:51:09.255Z,74.13
2022-08-25T06:53:40.274Z,73.35
2022-08-25T06:56:06.983Z,73.73
2022-08-25T06:58:33.803Z,73.38
2022-08-25T07:01:15.733Z,73.22
2022-08-25T07:03:46.173Z,71.81
2022-08-25T07:06:14.351Z,72.21
2022-08-25T07:08:43.150Z,72.00
2022-08-25T07:11:16.228Z,71.17
2022-08-25T07:13:45.425Z,70.65
2022-08-25T07:18:38.707Z,70.10
2022-08-25T07:21:05.386Z,70.02
2022-08-25T07:23:35.816Z,68.90
2022-08-25T07:26:36.937Z,69.16
2022-08-25T07:29:03.116Z,67.62
2022-08-25T07:31:29.956Z,67.84
2022-08-25T07:34:16.432Z,67.95
2022-08-25T07:36:43.293Z,67.88
2022-08-25T07:39:09.708Z,68.22
2022-08-25T07:44:04.742Z,68.05
2022-08-25T07:46:31.231Z,66.81
2022-08-25T07:53:53.917Z,64.99
2022-08-25T07:58:47.461Z,64.63
2022-08-25T08:03:50.378Z,64.74
2022-08-25T08:06:20.771Z,64.60
2022-08-25T08:11:34.397Z,63.56
2022-08-25T08:16:29.801Z,62.01
2022-08-25T08:18:57.838Z,63.16
2022-08-25T08:23:59.031Z,63.68
2022-08-25T08:26:48.088Z,62.14
2022-08-25T08:29:16.227Z,60.67
2022-08-25T08:31:48.550Z,60.15
2022-08-25T08:34:16.467Z,59.76
2022-08-25T08:39:11.734Z,59.80
2022-08-25T08:42:12.144Z,59.90
2022-08-25T08:47:36.186Z,58.54
2022-08-25T08:50:30.693Z,59.00
2022-08-25T08:58:09.399Z,59.28
2022-08-25T09:00:52.055Z,59.29
2022-08-25T09:05:59.415Z,57.47
2022-08-25T09:08:26.712Z,57.24
2022-08-25T09:11:10.123Z,56.49
2022-08-25T09:13:55.256Z,56.34
2022-08-25T09:16:55.993Z,57.16
2022-08-25T09:19:25.477Z,55.87
2022-08-25T09:22:00.990Z,55.27
2022-08-25T09:27:17.807Z,55.08
2022-08-25T09:30:25.067Z,54.77
2022-08-25T09:42:59.763Z,53.31
2022-08-25T09:48:00.791Z,52.46
2022-08-25T09:53:15.253Z,52.21
2022-08-25T09:55:46.460Z,52.89
2022-08-25T10:06:23.841Z,50.66
2022-08-25T10:08:50.768Z,50.18
2022-08-25T10:14:16.611Z,50.85
2022-08-25T10:24:49.010Z,48.87
2022-08-25T10:30:03.093Z,48.34
2022-08-25T10:32:49.406Z,46.43
2022-08-25T10:51:18.089Z,45.23
2022-08-25T10:56:33.246Z,45.81
2022-08-25T10:59:39.902Z,44.76
2022-08-25T11:12:30.255Z,45.22
2022-08-25T11:20:26.894Z,44.43
2022-08-25T11:26:02.158Z,45.08
2022-08-25T11:28:53.564Z,45.40
2022-08-25T11:31:22.765Z,45.81
2022-08-25T11:33:50.980Z,45.00
2022-08-25T11:36:35.370Z,43.86
2022-08-25T11:39:17.721Z,42.47
2022-08-25T11:42:17.107Z,41.91
2022-08-25T11:44:53.380Z,42.60
2022-08-25T11:47:38.960Z,43.73
2022-08-25T11:52:59.948Z,43.06
2022-08-25T11:55:51.779Z,43.96
2022-08-25T11:58:33.027Z,41.42
2022-08-25T12:01:02.156Z,42.37
2022-08-25T12:14:38.196Z,40.63
2022-08-25T12:24:47.712Z,39.17
2022-08-25T12:27:33.610Z,40.88
2022-08-25T12:33:16.132Z,40.85
2022-08-25T12:35:59.316Z,41.02
2022-08-25T12:38:47.274Z,41.30
2022-08-25T12:41:26.416Z,41.86
2022-08-25T12:48:58.106Z,40.42
2022-08-25T12:56:59.096Z,40.95
2022-08-25T12:59:31.374Z,40.27
2022-08-25T13:04:48.239Z,40.20
2022-08-25T13:10:06.783Z,40.38
2022-08-25T13:13:06.854Z,39.15
2022-08-25T13:24:01.483Z,39.42
2022-08-25T13:29:26.072Z,39.20
2022-08-25T13:31:54.833Z,39.79
2022-08-25T13:40:27.696Z,40.53
2022-08-25T13:43:09.299Z,40.70
2022-08-25T13:50:51.613Z,39.89
2022-08-25T13:53:25.050Z,39.33
2022-08-25T13:55:54.656Z,38.82
2022-08-25T13:58:39.421Z,38.94
2022-08-25T14:01:48.372Z,38.79
2022-08-25T14:04:20.975Z,37.69
2022-08-25T14:06:47.724Z,36.49
2022-08-25T14:09:17.857Z,36.61
2022-08-25T14:11:56.926Z,36.66
2022-08-25T14:14:23.283Z,36.79
2022-08-25T14:16:54.186Z,36.80
2022-08-25T14:19:24.609Z,35.96
2022-08-25T14:24:23.775Z,36.65
2022-08-25T14:29:22.094Z,36.64
2022-08-25T14:31:53.456Z,37.93
2022-08-25T14:34:24.046Z,39.24
2022-08-25T14:36:51.039Z,39.04
2022-08-25T14:39:18.209Z,38.71
2022-08-25T14:41:48.717Z,39.30
2022-08-25T14:44:20.322Z,39.12
2022-08-25T14:46:53.989Z,38.98
2022-08-25T14:51:53.662Z,39.51
2022-08-25T14:54:24.909Z,39.12
2022-08-25T15:01:45.609Z,39.62
2022-08-25T15:14:09.472Z,39.47
2022-08-25T15:16:41.877Z,39.33
2022-08-25T15:21:37.447Z,39.53
2022-08-25T15:24:09.264Z,39.73
2022-08-25T15:29:12.074Z,40.17
2022-08-25T15:31:39.848Z,40.05
2022-08-25T15:36:38.802Z,39.32
2022-08-25T15:39:06.387Z,39.75
2022-08-25T15:46:29.996Z,40.95
2022-08-25T15:51:28.303Z,40.06
2022-08-25T15:56:26.718Z,38.72
2022-08-25T15:58:55.247Z,38.50
2022-08-25T16:08:45.004Z,39.99
2022-08-25T16:11:20.897Z,39.10
2022-08-25T16:16:15.533Z,38.53
2022-08-25T16:18:43.646Z,38.60
2022-08-25T16:28:43.954Z,39.09
2022-08-25T16:31:12.614Z,38.82
2022-08-25T16:33:39.672Z,39.25
2022-08-25T16:36:33.215Z,38.57
2022-08-25T16:39:00.877Z,38.71
2022-08-25T16:41:35.889Z,39.32
2022-08-25T16:44:07.615Z,39.17
2022-08-25T16:51:33.472Z,39.71
2022-08-25T16:56:49.472Z,39.78
2022-08-25T16:59:21.437Z,40.02
2022-08-25T17:04:17.617Z,39.93
2022-08-25T17:06:49.347Z,40.14
2022-08-25T17:11:52.545Z,40.09
2022-08-25T17:16:48.407Z,40.42
2022-08-25T17:21:46.046Z,40.40
2022-08-25T17:24:13.846Z,41.24
2022-08-25T17:29:08.041Z,41.38
2022-08-25T17:31:39.396Z,41.46
2022-08-25T17:34:08.534Z,41.70
2022-08-25T17:39:03.270Z,41.19
2022-08-25T17:41:30.055Z,41.66
2022-08-25T17:43:57.203Z,42.18
2022-08-25T17:46:23.966Z,42.33
2022-08-25T17:56:16.801Z,43.31
2022-08-25T17:58:44.391Z,43.69
2022-08-25T18:01:29.273Z,44.27
2022-08-25T18:03:57.362Z,44.02
2022-08-25T18:08:54.469Z,44.75
2022-08-25T18:11:25.213Z,45.11
2022-08-25T18:13:53.596Z,45.04
2022-08-25T18:16:21.306Z,45.79
2022-08-25T18:18:48.408Z,46.19
2022-08-25T18:21:17.058Z,47.07
2022-08-25T18:23:44.899Z,47.33
2022-08-25T18:26:13.183Z,47.72
2022-08-25T18:28:40.153Z,48.56
2022-08-25T18:31:11.885Z,48.95
2022-08-25T18:33:41.553Z,49.39
2022-08-25T18:36:09.621Z,49.65
2022-08-25T18:38:57.939Z,50.41
2022-08-25T18:41:26.302Z,50.93
2022-08-25T18:43:53.139Z,51.43
2022-08-25T18:46:22.514Z,52.46
2022-08-25T18:48:49.895Z,52.67
2022-08-25T18:51:19.480Z,53.62
2022-08-25T18:56:19.345Z,53.45
2022-08-25T18:58:46.893Z,53.71
2022-08-25T19:01:15.665Z,53.64
2022-08-25T19:06:09.783Z,53.15
2022-08-25T19:08:39.353Z,53.29
2022-08-25T19:11:08.548Z,53.46
2022-08-25T19:13:35.075Z,53.45
2022-08-25T19:16:20.387Z,53.14
2022-08-25T19:18:48.911Z,53.55
2022-08-25T19:23:50.203Z,54.16
2022-08-25T19:26:17.958Z,53.89
2022-08-25T19:28:50.416Z,54.22
2022-08-25T19:31:19.020Z,53.80
2022-08-25T19:33:47.838Z,54.12
2022-08-25T19:36:17.187Z,54.52
2022-08-25T19:41:14.582Z,54.95
2022-08-25T19:43:55.620Z,55.43
2022-08-25T19:49:08.841Z,55.89
2022-08-25T19:51:43.934Z,55.94
2022-08-25T19:54:16.418Z,56.66
2022-08-25T19:56:54.384Z,57.20
2022-08-25T19:59:42.328Z,57.38
2022-08-25T20:02:15.324Z,57.96
2022-08-25T20:04:42.929Z,57.72
2022-08-25T20:07:16.908Z,58.03
2022-08-25T20:09:45.132Z,58.64
2022-08-25T20:12:12.152Z,58.78
2022-08-25T20:14:39.146Z,58.64
2022-08-25T20:24:56.173Z,60.15
2022-08-25T20:27:34.857Z,59.67
2022-08-25T20:30:03.625Z,59.69
2022-08-25T20:32:32.398Z,59.63
2022-08-25T20:34:59.896Z,59.87
2022-08-25T20:37:26.492Z,60.30
2022-08-25T20:39:52.987Z,60.49
2022-08-25T20:42:19.594Z,60.26
2022-08-25T20:44:46.972Z,60.11
2022-08-25T20:47:14.776Z,60.46
2022-08-25T20:49:44.405Z,60.86
2022-08-25T20:52:11.906Z,61.18
2022-08-25T20:54:38.596Z,61.19
2022-08-25T20:57:05.480Z,61.43
2022-08-25T20:59:34.473Z,61.40
2022-08-25T21:02:00.969Z,61.72
2022-08-25T21:07:00.189Z,62.01
2022-08-25T21:09:27.976Z,62.70
2022-08-25T21:11:56.409Z,62.35
2022-08-25T21:14:24.745Z,62.75
2022-08-25T21:16:53.267Z,62.88
2022-08-25T21:19:26.406Z,63.09
2022-08-25T21:24:26.201Z,63.61
2022-08-25T21:26:55.759Z,63.79
2022-08-25T21:31:50.945Z,64.53
2022-08-25T21:34:18.687Z,65.08
2022-08-25T21:36:45.793Z,65.87
2022-08-25T21:39:13.120Z,65.85
2022-08-25T21:41:42.645Z,66.71
2022-08-25T21:44:10.245Z,67.36
2022-08-25T21:46:36.981Z,67.06
2022-08-25T21:49:06.518Z,67.70
2022-08-25T21:51:40.731Z,68.20
2022-08-25T21:54:11.237Z,67.87
2022-08-25T21:56:43.589Z,68.03
2022-08-25T21:59:14.945Z,68.43
2022-08-25T22:01:42.740Z,68.21
2022-08-25T22:04:11.887Z,68.93
2022-08-25T22:06:39.021Z,69.57
2022-08-25T22:09:07.385Z,69.53
2022-08-25T22:11:36.167Z,69.19
2022-08-25T22:16:31.823Z,69.94
2022-08-25T22:18:59.361Z,70.51
2022-08-25T22:21:27.827Z,70.27
2022-08-25T22:23:58.803Z,71.31
2022-08-25T22:26:28.899Z,72.71
2022-08-25T22:28:57.425Z,73.47
2022-08-25T22:31:25.006Z,73.58
2022-08-25T22:33:52.276Z,73.93
2022-08-25T22:36:31.463Z,73.70
2022-08-25T22:38:58.516Z,73.80
2022-08-25T22:41:27.076Z,74.58
2022-08-25T22:46:22.878Z,74.29
2022-08-25T22:48:50.386Z,74.96
2022-08-25T22:51:21.756Z,75.40
2022-08-25T22:53:49.101Z,75.69
2022-08-25T22:56:18.823Z,76.25
2022-08-25T23:01:19.921Z,76.79
2022-08-25T23:03:47.593Z,77.02
2022-08-25T23:06:24.490Z,77.04
2022-08-25T23:11:21.101Z,76.91
2022-08-25T23:13:47.578Z,77.93
2022-08-25T23:16:15.062Z,78.32
2022-08-25T23:18:43.937Z,78.36
2022-08-25T23:21:29.926Z,78.39
2022-08-25T23:24:01.876Z,78.46
2022-08-25T23:26:29.375Z,78.89
2022-08-25T23:28:55.916Z,79.29
2022-08-25T23:31:22.326Z,79.97
2022-08-25T23:33:50.769Z,80.65
2022-08-25T23:36:17.391Z,80.54
2022-08-25T23:38:46.108Z,80.14
2022-08-25T23:46:18.028Z,81.50
2022-08-25T23:48:44.674Z,81.59
2022-08-25T23:51:11.410Z,81.82
2022-08-25T23:53:38.421Z,81.88
2022-08-25T23:56:06.112Z,82.22
2022-08-25T23:58:32.681Z,82.73
